sensor_id;sensor_type;location;lat;lon;timestamp;P1;durP1;ratioP1;P2;durP2;ratioP2
15504;SDS011;7854;52.184;5.942;2023-09-12T00:00:54;61;;;32;;
15504;SDS011;7854;52.184;5.942;2023-09-12T00:03:03;40;;;30;;
15504;SDS011;7854;52.184;5.942;2023-09-12T00:05:18;73;;;40;;
15504;SDS011;7854;52.184;5.942;2023-09-12T00:07:32;41;;;28;;
15504;SDS011;7854;52.184;5.942;2023-09-12T00:09:47;36;;;28;;
15504;SDS011;7854;52.184;5.942;2023-09-12T00:12:01;41;;;32;;
15504;SDS011;7854;52.184;5.942;2023-09-12T00:14:16;49;;;33;;
15504;SDS011;7854;52.184;5.942;2023-09-12T00:16:30;56;;;35;;
15504;SDS011;7854;52.184;5.942;2023-09-12T00:18:44;64;;;37;;
15504;SDS011;7854;52.184;5.942;2023-09-12T00:20:59;66;;;38;;
15504;SDS011;7854;52.184;5.942;2023-09-12T00:23:13;51;;;36;;
15504;SDS011;7854;52.184;5.942;2023-09-12T00:25:27;38;;;27;;
15504;SDS011;7854;52.184;5.942;2023-09-12T00:27:42;45;;;33;;
15504;SDS011;7854;52.184;5.942;2023-09-12T00:29:56;42;;;31;;
15504;SDS011;7854;52.184;5.942;2023-09-12T00:32:11;51;;;32;;
15504;SDS011;7854;52.184;5.942;2023-09-12T00:34:25;48;;;35;;
15504;SDS011;7854;52.184;5.942;2023-09-12T00:36:40;44;;;34;;
15504;SDS011;7854;52.184;5.942;2023-09-12T00:38:54;39;;;30;;
15504;SDS011;7854;52.184;5.942;2023-09-12T00:41:09;33;;;29;;
15504;SDS011;7854;52.184;5.942;2023-09-12T00:43:23;41;;;31;;
15504;SDS011;7854;52.184;5.942;2023-09-12T00:45:38;53;;;34;;
15504;SDS011;7854;52.184;5.942;2023-09-12T00:47:51;57;;;36;;
15504;SDS011;7854;52.184;5.942;2023-09-12T00:50:06;47;;;33;;
15504;SDS011;7854;52.184;5.942;2023-09-12T00:52:20;54;;;30;;
15504;SDS011;7854;52.184;5.942;2023-09-12T00:54:35;45;;;31;;
15504;SDS011;7854;52.184;5.942;2023-09-12T00:56:49;49;;;32;;
15504;SDS011;7854;52.184;5.942;2023-09-12T00:59:04;35;;;28;;
15504;SDS011;7854;52.184;5.942;2023-09-12T01:01:18;37;;;30;;
15504;SDS011;7854;52.184;5.942;2023-09-12T01:03:32;41;;;30;;
15504;SDS011;7854;52.184;5.942;2023-09-12T01:05:46;34;;;29;;
15504;SDS011;7854;52.184;5.942;2023-09-12T01:10:15;61;;;35;;
15504;SDS011;7854;52.184;5.942;2023-09-12T01:12:30;38;;;29;;
15504;SDS011;7854;52.184;5.942;2023-09-12T01:14:45;47;;;34;;
15504;SDS011;7854;52.184;5.942;2023-09-12T01:16:59;51;;;36;;
15504;SDS011;7854;52.184;5.942;2023-09-12T01:19:13;60;;;38;;
15504;SDS011;7854;52.184;5.942;2023-09-12T01:21:35;81;;;45;;
15504;SDS011;7854;52.184;5.942;2023-09-12T01:23:45;51;;;35;;
15504;SDS011;7854;52.184;5.942;2023-09-12T01:26:01;65;;;40;;
15504;SDS011;7854;52.184;5.942;2023-09-12T01:28:11;63;;;42;;
15504;SDS011;7854;52.184;5.942;2023-09-12T01:30:26;60;;;38;;
15504;SDS011;7854;52.184;5.942;2023-09-12T01:32:40;58;;;39;;
15504;SDS011;7854;52.184;5.942;2023-09-12T01:34:55;73;;;39;;
15504;SDS011;7854;52.184;5.942;2023-09-12T01:37:09;61;;;38;;
15504;SDS011;7854;52.184;5.942;2023-09-12T01:39:23;63;;;40;;
15504;SDS011;7854;52.184;5.942;2023-09-12T01:41:39;57;;;38;;
15504;SDS011;7854;52.184;5.942;2023-09-12T01:43:52;59;;;38;;
15504;SDS011;7854;52.184;5.942;2023-09-12T01:46:06;54;;;38;;
15504;SDS011;7854;52.184;5.942;2023-09-12T01:48:22;73;;;41;;
15504;SDS011;7854;52.184;5.942;2023-09-12T01:50:36;68;;;40;;
15504;SDS011;7854;52.184;5.942;2023-09-12T01:52:50;79;;;47;;
15504;SDS011;7854;52.184;5.942;2023-09-12T01:55:05;67;;;39;;
15504;SDS011;7854;52.184;5.942;2023-09-12T01:57:19;98;;;48;;
15504;SDS011;7854;52.184;5.942;2023-09-12T01:59:33;64;;;39;;
15504;SDS011;7854;52.184;5.942;2023-09-12T02:01:48;45;;;33;;
15504;SDS011;7854;52.184;5.942;2023-09-12T02:04:03;110;;;49;;
15504;SDS011;7854;52.184;5.942;2023-09-12T02:06:17;63;;;41;;
15504;SDS011;7854;52.184;5.942;2023-09-12T02:08:31;65;;;41;;
15504;SDS011;7854;52.184;5.942;2023-09-12T02:10:46;46;;;34;;
15504;SDS011;7854;52.184;5.942;2023-09-12T02:13:00;65;;;42;;
15504;SDS011;7854;52.184;5.942;2023-09-12T02:15:14;60;;;39;;
15504;SDS011;7854;52.184;5.942;2023-09-12T02:17:29;63;;;41;;
15504;SDS011;7854;52.184;5.942;2023-09-12T02:19:46;67;;;42;;
15504;SDS011;7854;52.184;5.942;2023-09-12T02:21:58;80;;;45;;
15504;SDS011;7854;52.184;5.942;2023-09-12T02:24:12;77;;;43;;
15504;SDS011;7854;52.184;5.942;2023-09-12T02:26:27;80;;;43;;
15504;SDS011;7854;52.184;5.942;2023-09-12T02:28:41;51;;;37;;
15504;SDS011;7854;52.184;5.942;2023-09-12T02:30:57;65;;;41;;
15504;SDS011;7854;52.184;5.942;2023-09-12T02:33:10;85;;;46;;
15504;SDS011;7854;52.184;5.942;2023-09-12T02:35:24;77;;;43;;
15504;SDS011;7854;52.184;5.942;2023-09-12T02:37:39;53;;;36;;
15504;SDS011;7854;52.184;5.942;2023-09-12T02:39:53;55;;;37;;
15504;SDS011;7854;52.184;5.942;2023-09-12T02:42:08;62;;;39;;
15504;SDS011;7854;52.184;5.942;2023-09-12T02:46:37;60;;;37;;
15504;SDS011;7854;52.184;5.942;2023-09-12T02:48:51;65;;;40;;
15504;SDS011;7854;52.184;5.942;2023-09-12T02:51:06;49;;;36;;
15504;SDS011;7854;52.184;5.942;2023-09-12T02:53:20;53;;;38;;
15504;SDS011;7854;52.184;5.942;2023-09-12T02:55:38;57;;;35;;
15504;SDS011;7854;52.184;5.942;2023-09-12T02:57:49;51;;;35;;
15504;SDS011;7854;52.184;5.942;2023-09-12T03:00:04;52;;;34;;
15504;SDS011;7854;52.184;5.942;2023-09-12T03:02:18;54;;;34;;
15504;SDS011;7854;52.184;5.942;2023-09-12T03:04:35;67;;;36;;
15504;SDS011;7854;52.184;5.942;2023-09-12T03:06:47;88;;;41;;
15504;SDS011;7854;52.184;5.942;2023-09-12T03:09:02;82;;;44;;
15504;SDS011;7854;52.184;5.942;2023-09-12T03:11:15;47;;;32;;
15504;SDS011;7854;52.184;5.942;2023-09-12T03:13:29;41;;;30;;
15504;SDS011;7854;52.184;5.942;2023-09-12T03:15:45;62;;;37;;
15504;SDS011;7854;52.184;5.942;2023-09-12T03:17:58;51;;;35;;
15504;SDS011;7854;52.184;5.942;2023-09-12T03:22:27;67;;;40;;
15504;SDS011;7854;52.184;5.942;2023-09-12T03:24:41;81;;;43;;
15504;SDS011;7854;52.184;5.942;2023-09-12T03:26:56;56;;;36;;
15504;SDS011;7854;52.184;5.942;2023-09-12T03:29:10;46;;;30;;
15504;SDS011;7854;52.184;5.942;2023-09-12T03:31:24;45;;;32;;
15504;SDS011;7854;52.184;5.942;2023-09-12T03:33:40;70;;;39;;
15504;SDS011;7854;52.184;5.942;2023-09-12T03:35:54;55;;;35;;
15504;SDS011;7854;52.184;5.942;2023-09-12T03:38:08;47;;;33;;
15504;SDS011;7854;52.184;5.942;2023-09-12T03:40:22;82;;;40;;
15504;SDS011;7854;52.184;5.942;2023-09-12T03:42:37;57;;;38;;
15504;SDS011;7854;52.184;5.942;2023-09-12T03:44:51;48;;;31;;
15504;SDS011;7854;52.184;5.942;2023-09-12T03:47:06;43;;;28;;
15504;SDS011;7854;52.184;5.942;2023-09-12T03:49:20;70;;;41;;
15504;SDS011;7854;52.184;5.942;2023-09-12T03:51:34;46;;;32;;
15504;SDS011;7854;52.184;5.942;2023-09-12T03:53:48;103;;;44;;
15504;SDS011;7854;52.184;5.942;2023-09-12T03:56:03;47;;;33;;
15504;SDS011;7854;52.184;5.942;2023-09-12T03:58:17;50;;;34;;
15504;SDS011;7854;52.184;5.942;2023-09-12T04:00:32;47;;;33;;
15504;SDS011;7854;52.184;5.942;2023-09-12T04:02:46;45;;;33;;
15504;SDS011;7854;52.184;5.942;2023-09-12T04:05:00;45;;;32;;
15504;SDS011;7854;52.184;5.942;2023-09-12T04:09:29;99;;;46;;
15504;SDS011;7854;52.184;5.942;2023-09-12T04:11:44;39;;;29;;
15504;SDS011;7854;52.184;5.942;2023-09-12T04:13:58;41;;;31;;
15504;SDS011;7854;52.184;5.942;2023-09-12T04:16:13;48;;;34;;
15504;SDS011;7854;52.184;5.942;2023-09-12T04:18:27;42;;;28;;
15504;SDS011;7854;52.184;5.942;2023-09-12T04:20:42;51;;;35;;
15504;SDS011;7854;52.184;5.942;2023-09-12T04:22:56;55;;;33;;
15504;SDS011;7854;52.184;5.942;2023-09-12T04:25:11;88;;;40;;
15504;SDS011;7854;52.184;5.942;2023-09-12T04:27:25;68;;;37;;
15504;SDS011;7854;52.184;5.942;2023-09-12T04:29:39;43;;;29;;
15504;SDS011;7854;52.184;5.942;2023-09-12T04:31:54;52;;;32;;
15504;SDS011;7854;52.184;5.942;2023-09-12T04:34:08;62;;;36;;
15504;SDS011;7854;52.184;5.942;2023-09-12T04:36:23;42;;;30;;
15504;SDS011;7854;52.184;5.942;2023-09-12T04:38:37;31;;;25;;
15504;SDS011;7854;52.184;5.942;2023-09-12T04:40:53;36;;;25;;
15504;SDS011;7854;52.184;5.942;2023-09-12T04:43:06;38;;;27;;
15504;SDS011;7854;52.184;5.942;2023-09-12T04:45:20;36;;;27;;
15504;SDS011;7854;52.184;5.942;2023-09-12T04:47:35;50;;;30;;
15504;SDS011;7854;52.184;5.942;2023-09-12T04:49:50;34;;;27;;
15504;SDS011;7854;52.184;5.942;2023-09-12T04:52:04;31;;;26;;
15504;SDS011;7854;52.184;5.942;2023-09-12T04:54:18;43;;;29;;
15504;SDS011;7854;52.184;5.942;2023-09-12T04:56:33;34;;;27;;
15504;SDS011;7854;52.184;5.942;2023-09-12T04:58:47;47;;;32;;
15504;SDS011;7854;52.184;5.942;2023-09-12T05:01:02;35;;;26;;
15504;SDS011;7854;52.184;5.942;2023-09-12T05:03:16;63;;;35;;
15504;SDS011;7854;52.184;5.942;2023-09-12T05:05:30;49;;;30;;
15504;SDS011;7854;52.184;5.942;2023-09-12T05:07:45;40;;;31;;
15504;SDS011;7854;52.184;5.942;2023-09-12T05:09:59;45;;;27;;
15504;SDS011;7854;52.184;5.942;2023-09-12T05:12:14;40;;;28;;
15504;SDS011;7854;52.184;5.942;2023-09-12T05:14:28;39;;;28;;
15504;SDS011;7854;52.184;5.942;2023-09-12T05:16:43;60;;;35;;
15504;SDS011;7854;52.184;5.942;2023-09-12T05:18:57;44;;;30;;
15504;SDS011;7854;52.184;5.942;2023-09-12T05:21:12;55;;;32;;
15504;SDS011;7854;52.184;5.942;2023-09-12T05:23:26;34;;;25;;
15504;SDS011;7854;52.184;5.942;2023-09-12T05:27:55;73;;;37;;
15504;SDS011;7854;52.184;5.942;2023-09-12T05:30:10;46;;;30;;
15504;SDS011;7854;52.184;5.942;2023-09-12T05:32:24;51;;;33;;
15504;SDS011;7854;52.184;5.942;2023-09-12T05:34:38;46;;;30;;
15504;SDS011;7854;52.184;5.942;2023-09-12T05:39:07;71;;;37;;
15504;SDS011;7854;52.184;5.942;2023-09-12T05:41:21;48;;;32;;
15504;SDS011;7854;52.184;5.942;2023-09-12T05:43:36;54;;;33;;
15504;SDS011;7854;52.184;5.942;2023-09-12T05:45:51;64;;;37;;
15504;SDS011;7854;52.184;5.942;2023-09-12T05:48:05;74;;;39;;
15504;SDS011;7854;52.184;5.942;2023-09-12T05:50:19;58;;;35;;
15504;SDS011;7854;52.184;5.942;2023-09-12T05:52:34;73;;;39;;
15504;SDS011;7854;52.184;5.942;2023-09-12T05:54:47;70;;;40;;
15504;SDS011;7854;52.184;5.942;2023-09-12T05:57:02;61;;;37;;
15504;SDS011;7854;52.184;5.942;2023-09-12T05:59:16;57;;;34;;
15504;SDS011;7854;52.184;5.942;2023-09-12T06:01:31;78;;;39;;
15504;SDS011;7854;52.184;5.942;2023-09-12T06:03:45;53;;;34;;
15504;SDS011;7854;52.184;5.942;2023-09-12T06:06:00;58;;;35;;
15504;SDS011;7854;52.184;5.942;2023-09-12T06:08:14;77;;;38;;
15504;SDS011;7854;52.184;5.942;2023-09-12T06:10:28;76;;;41;;
15504;SDS011;7854;52.184;5.942;2023-09-12T06:12:43;79;;;41;;
15504;SDS011;7854;52.184;5.942;2023-09-12T06:14:57;111;;;53;;
15504;SDS011;7854;52.184;5.942;2023-09-12T06:17:11;97;;;48;;
15504;SDS011;7854;52.184;5.942;2023-09-12T06:19:26;88;;;46;;
15504;SDS011;7854;52.184;5.942;2023-09-12T06:21:41;89;;;48;;
15504;SDS011;7854;52.184;5.942;2023-09-12T06:24:07;103;;;51;;
15504;SDS011;7854;52.184;5.942;2023-09-12T06:26:10;119;;;55;;
15504;SDS011;7854;52.184;5.942;2023-09-12T06:28:25;108;;;56;;
15504;SDS011;7854;52.184;5.942;2023-09-12T06:30:38;113;;;56;;
15504;SDS011;7854;52.184;5.942;2023-09-12T06:32:53;106;;;53;;
15504;SDS011;7854;52.184;5.942;2023-09-12T06:35:07;79;;;46;;
15504;SDS011;7854;52.184;5.942;2023-09-12T06:37:22;143;;;66;;
15504;SDS011;7854;52.184;5.942;2023-09-12T06:39:36;123;;;57;;
15504;SDS011;7854;52.184;5.942;2023-09-12T06:41:51;116;;;60;;
15504;SDS011;7854;52.184;5.942;2023-09-12T06:44:05;118;;;58;;
15504;SDS011;7854;52.184;5.942;2023-09-12T06:46:20;132;;;63;;
15504;SDS011;7854;52.184;5.942;2023-09-12T06:48:34;108;;;58;;
15504;SDS011;7854;52.184;5.942;2023-09-12T06:50:48;115;;;58;;
15504;SDS011;7854;52.184;5.942;2023-09-12T06:53:03;98;;;50;;
15504;SDS011;7854;52.184;5.942;2023-09-12T06:55:17;102;;;54;;
15504;SDS011;7854;52.184;5.942;2023-09-12T06:57:32;105;;;54;;
15504;SDS011;7854;52.184;5.942;2023-09-12T06:59:46;124;;;57;;
15504;SDS011;7854;52.184;5.942;2023-09-12T07:02:01;93;;;49;;
15504;SDS011;7854;52.184;5.942;2023-09-12T07:04:15;106;;;54;;
15504;SDS011;7854;52.184;5.942;2023-09-12T07:06:30;118;;;55;;
15504;SDS011;7854;52.184;5.942;2023-09-12T07:08:44;114;;;57;;
15504;SDS011;7854;52.184;5.942;2023-09-12T07:10:59;113;;;58;;
15504;SDS011;7854;52.184;5.942;2023-09-12T07:13:13;110;;;56;;
15504;SDS011;7854;52.184;5.942;2023-09-12T07:15:27;128;;;64;;
15504;SDS011;7854;52.184;5.942;2023-09-12T07:17:42;88;;;52;;
15504;SDS011;7854;52.184;5.942;2023-09-12T07:19:56;105;;;56;;
15504;SDS011;7854;52.184;5.942;2023-09-12T07:22:11;127;;;61;;
15504;SDS011;7854;52.184;5.942;2023-09-12T07:24:26;103;;;57;;
15504;SDS011;7854;52.184;5.942;2023-09-12T07:26:40;102;;;53;;
15504;SDS011;7854;52.184;5.942;2023-09-12T07:28:54;84;;;49;;
15504;SDS011;7854;52.184;5.942;2023-09-12T07:31:08;93;;;52;;
15504;SDS011;7854;52.184;5.942;2023-09-12T07:33:23;93;;;46;;
15504;SDS011;7854;52.184;5.942;2023-09-12T07:35:36;80;;;43;;
15504;SDS011;7854;52.184;5.942;2023-09-12T07:37:50;86;;;48;;
15504;SDS011;7854;52.184;5.942;2023-09-12T07:40:06;92;;;50;;
15504;SDS011;7854;52.184;5.942;2023-09-12T07:42:21;101;;;53;;
15504;SDS011;7854;52.184;5.942;2023-09-12T07:44:34;99;;;53;;
15504;SDS011;7854;52.184;5.942;2023-09-12T07:46:49;104;;;53;;
15504;SDS011;7854;52.184;5.942;2023-09-12T07:49:03;104;;;53;;
15504;SDS011;7854;52.184;5.942;2023-09-12T07:51:18;87;;;46;;
15504;SDS011;7854;52.184;5.942;2023-09-12T07:53:32;131;;;64;;
15504;SDS011;7854;52.184;5.942;2023-09-12T07:55:46;101;;;53;;
15504;SDS011;7854;52.184;5.942;2023-09-12T07:58:01;98;;;55;;
15504;SDS011;7854;52.184;5.942;2023-09-12T08:00:15;92;;;49;;
15504;SDS011;7854;52.184;5.942;2023-09-12T08:02:30;81;;;46;;
15504;SDS011;7854;52.184;5.942;2023-09-12T08:04:44;92;;;50;;
15504;SDS011;7854;52.184;5.942;2023-09-12T08:06:58;87;;;50;;
15504;SDS011;7854;52.184;5.942;2023-09-12T08:09:13;89;;;52;;
15504;SDS011;7854;52.184;5.942;2023-09-12T08:11:28;81;;;49;;
15504;SDS011;7854;52.184;5.942;2023-09-12T08:13:42;98;;;50;;
15504;SDS011;7854;52.184;5.942;2023-09-12T08:15:57;79;;;45;;
15504;SDS011;7854;52.184;5.942;2023-09-12T08:18:11;77;;;45;;
15504;SDS011;7854;52.184;5.942;2023-09-12T08:20:24;76;;;48;;
15504;SDS011;7854;52.184;5.942;2023-09-12T08:22:39;84;;;48;;
15504;SDS011;7854;52.184;5.942;2023-09-12T08:24:53;75;;;44;;
15504;SDS011;7854;52.184;5.942;2023-09-12T08:27:07;80;;;45;;
15504;SDS011;7854;52.184;5.942;2023-09-12T08:29:22;66;;;44;;
15504;SDS011;7854;52.184;5.942;2023-09-12T08:31:36;62;;;39;;
15504;SDS011;7854;52.184;5.942;2023-09-12T08:33:51;70;;;40;;
15504;SDS011;7854;52.184;5.942;2023-09-12T08:36:06;55;;;33;;
15504;SDS011;7854;52.184;5.942;2023-09-12T08:38:20;38;;;28;;
15504;SDS011;7854;52.184;5.942;2023-09-12T08:40:34;28;;;25;;
15504;SDS011;7854;52.184;5.942;2023-09-12T08:42:49;27;;;25;;
15504;SDS011;7854;52.184;5.942;2023-09-12T08:45:04;21;;;19;;
15504;SDS011;7854;52.184;5.942;2023-09-12T08:47:17;26;;;23;;
15504;SDS011;7854;52.184;5.942;2023-09-12T08:49:32;18;;;16;;
15504;SDS011;7854;52.184;5.942;2023-09-12T08:51:47;18;;;16;;
15504;SDS011;7854;52.184;5.942;2023-09-12T08:54:01;16;;;14;;
15504;SDS011;7854;52.184;5.942;2023-09-12T08:56:15;15;;;14;;
15504;SDS011;7854;52.184;5.942;2023-09-12T08:58:30;14;;;13;;
15504;SDS011;7854;52.184;5.942;2023-09-12T09:00:44;15;;;14;;
15504;SDS011;7854;52.184;5.942;2023-09-12T09:02:59;14;;;12;;
15504;SDS011;7854;52.184;5.942;2023-09-12T09:05:13;13;;;12;;
15504;SDS011;7854;52.184;5.942;2023-09-12T09:07:27;14;;;12;;
15504;SDS011;7854;52.184;5.942;2023-09-12T09:09:42;12;;;11;;
15504;SDS011;7854;52.184;5.942;2023-09-12T09:11:57;12;;;11;;
15504;SDS011;7854;52.184;5.942;2023-09-12T09:14:11;11;;;10;;
15504;SDS011;7854;52.184;5.942;2023-09-12T09:16:26;11;;;10;;
15504;SDS011;7854;52.184;5.942;2023-09-12T09:18:56;11;;;9;;
15504;SDS011;7854;52.184;5.942;2023-09-12T09:20:56;11;;;10;;
15504;SDS011;7854;52.184;5.942;2023-09-12T09:23:10;12;;;11;;
15504;SDS011;7854;52.184;5.942;2023-09-12T09:27:38;11;;;10;;
15504;SDS011;7854;52.184;5.942;2023-09-12T09:29:52;12;;;11;;
15504;SDS011;7854;52.184;5.942;2023-09-12T09:32:07;11;;;10;;
15504;SDS011;7854;52.184;5.942;2023-09-12T09:34:22;11;;;10;;
15504;SDS011;7854;52.184;5.942;2023-09-12T09:36:37;11;;;10;;
15504;SDS011;7854;52.184;5.942;2023-09-12T09:38:51;10;;;9;;
15504;SDS011;7854;52.184;5.942;2023-09-12T09:41:06;11;;;10;;
15504;SDS011;7854;52.184;5.942;2023-09-12T09:43:20;10;;;9;;
15504;SDS011;7854;52.184;5.942;2023-09-12T09:45:42;11;;;10;;
15504;SDS011;7854;52.184;5.942;2023-09-12T09:47:49;10;;;9;;
15504;SDS011;7854;52.184;5.942;2023-09-12T09:50:04;9;;;9;;
15504;SDS011;7854;52.184;5.942;2023-09-12T09:52:24;10;;;9;;
15504;SDS011;7854;52.184;5.942;2023-09-12T09:54:33;7;;;7;;
15504;SDS011;7854;52.184;5.942;2023-09-12T09:56:47;10;;;9;;
15504;SDS011;7854;52.184;5.942;2023-09-12T09:59:02;8;;;8;;
15504;SDS011;7854;52.184;5.942;2023-09-12T10:01:17;9;;;9;;
15504;SDS011;7854;52.184;5.942;2023-09-12T10:03:31;9;;;9;;
15504;SDS011;7854;52.184;5.942;2023-09-12T10:05:45;10;;;9;;
15504;SDS011;7854;52.184;5.942;2023-09-12T10:08:00;9;;;9;;
15504;SDS011;7854;52.184;5.942;2023-09-12T10:10:15;11;;;10;;
15504;SDS011;7854;52.184;5.942;2023-09-12T10:12:29;13;;;12;;
15504;SDS011;7854;52.184;5.942;2023-09-12T10:14:44;11;;;10;;
15504;SDS011;7854;52.184;5.942;2023-09-12T10:17:00;10;;;9;;
15504;SDS011;7854;52.184;5.942;2023-09-12T10:19:15;11;;;10;;
15504;SDS011;7854;52.184;5.942;2023-09-12T10:21:28;13;;;12;;
15504;SDS011;7854;52.184;5.942;2023-09-12T10:23:43;13;;;12;;
15504;SDS011;7854;52.184;5.942;2023-09-12T10:25:56;14;;;13;;
15504;SDS011;7854;52.184;5.942;2023-09-12T10:28:11;13;;;12;;
15504;SDS011;7854;52.184;5.942;2023-09-12T10:30:25;11;;;9;;
15504;SDS011;7854;52.184;5.942;2023-09-12T10:32:40;14;;;12;;
15504;SDS011;7854;52.184;5.942;2023-09-12T10:34:54;10;;;10;;
15504;SDS011;7854;52.184;5.942;2023-09-12T10:37:09;14;;;13;;
15504;SDS011;7854;52.184;5.942;2023-09-12T10:39:23;11;;;10;;
15504;SDS011;7854;52.184;5.942;2023-09-12T10:41:39;10;;;9;;
15504;SDS011;7854;52.184;5.942;2023-09-12T10:43:52;10;;;9;;
15504;SDS011;7854;52.184;5.942;2023-09-12T10:46:06;10;;;9;;
15504;SDS011;7854;52.184;5.942;2023-09-12T10:48:21;11;;;10;;
15504;SDS011;7854;52.184;5.942;2023-09-12T10:50:35;10;;;9;;
15504;SDS011;7854;52.184;5.942;2023-09-12T10:52:51;10;;;9;;
15504;SDS011;7854;52.184;5.942;2023-09-12T10:57:19;7;;;6;;
15504;SDS011;7854;52.184;5.942;2023-09-12T10:59:34;8;;;6;;
15504;SDS011;7854;52.184;5.942;2023-09-12T11:01:48;8;;;8;;
15504;SDS011;7854;52.184;5.942;2023-09-12T11:04:05;12;;;7;;
15504;SDS011;7854;52.184;5.942;2023-09-12T11:06:20;7;;;7;;
15504;SDS011;7854;52.184;5.942;2023-09-12T11:08:35;9;;;9;;
15504;SDS011;7854;52.184;5.942;2023-09-12T11:10:53;7;;;6;;
15504;SDS011;7854;52.184;5.942;2023-09-12T11:13:01;9;;;7;;
15504;SDS011;7854;52.184;5.942;2023-09-12T11:15:15;7;;;6;;
15504;SDS011;7854;52.184;5.942;2023-09-12T11:17:31;7;;;7;;
15504;SDS011;7854;52.184;5.942;2023-09-12T11:19:44;8;;;7;;
15504;SDS011;7854;52.184;5.942;2023-09-12T11:21:59;7;;;6;;
15504;SDS011;7854;52.184;5.942;2023-09-12T11:24:13;7;;;6;;
15504;SDS011;7854;52.184;5.942;2023-09-12T11:26:27;8;;;7;;
15504;SDS011;7854;52.184;5.942;2023-09-12T11:28:42;5;;;4;;
15504;SDS011;7854;52.184;5.942;2023-09-12T11:30:56;5;;;4;;
15504;SDS011;7854;52.184;5.942;2023-09-12T11:33:12;7;;;7;;
15504;SDS011;7854;52.184;5.942;2023-09-12T11:35:26;5;;;4;;
15504;SDS011;7854;52.184;5.942;2023-09-12T11:37:47;5;;;5;;
15504;SDS011;7854;52.184;5.942;2023-09-12T11:39:54;6;;;5;;
15504;SDS011;7854;52.184;5.942;2023-09-12T11:42:10;5;;;5;;
15504;SDS011;7854;52.184;5.942;2023-09-12T11:44:23;5;;;5;;
15504;SDS011;7854;52.184;5.942;2023-09-12T11:46:38;7;;;6;;
15504;SDS011;7854;52.184;5.942;2023-09-12T11:48:52;8;;;7;;
15504;SDS011;7854;52.184;5.942;2023-09-12T11:51:07;6;;;5;;
15504;SDS011;7854;52.184;5.942;2023-09-12T11:53:21;7;;;6;;
15504;SDS011;7854;52.184;5.942;2023-09-12T11:55:36;5;;;5;;
15504;SDS011;7854;52.184;5.942;2023-09-12T11:57:50;5;;;5;;
15504;SDS011;7854;52.184;5.942;2023-09-12T12:00:06;6;;;6;;
15504;SDS011;7854;52.184;5.942;2023-09-12T12:02:18;7;;;7;;
15504;SDS011;7854;52.184;5.942;2023-09-12T12:04:33;6;;;6;;
15504;SDS011;7854;52.184;5.942;2023-09-12T12:06:48;6;;;6;;
15504;SDS011;7854;52.184;5.942;2023-09-12T12:09:02;6;;;5;;
15504;SDS011;7854;52.184;5.942;2023-09-12T12:11:16;4;;;3;;
15504;SDS011;7854;52.184;5.942;2023-09-12T12:13:32;5;;;4;;
15504;SDS011;7854;52.184;5.942;2023-09-12T12:15:46;5;;;5;;
15504;SDS011;7854;52.184;5.942;2023-09-12T12:18:00;6;;;5;;
15504;SDS011;7854;52.184;5.942;2023-09-12T12:20:15;5;;;4;;
15504;SDS011;7854;52.184;5.942;2023-09-12T12:22:30;5;;;5;;
15504;SDS011;7854;52.184;5.942;2023-09-12T12:24:44;5;;;4;;
15504;SDS011;7854;52.184;5.942;2023-09-12T12:26:59;4;;;4;;
15504;SDS011;7854;52.184;5.942;2023-09-12T12:29:12;5;;;5;;
15504;SDS011;7854;52.184;5.942;2023-09-12T12:31:27;5;;;5;;
15504;SDS011;7854;52.184;5.942;2023-09-12T12:33:47;4;;;4;;
15504;SDS011;7854;52.184;5.942;2023-09-12T12:35:59;6;;;5;;
15504;SDS011;7854;52.184;5.942;2023-09-12T12:38:10;6;;;6;;
15504;SDS011;7854;52.184;5.942;2023-09-12T12:40:26;5;;;4;;
15504;SDS011;7854;52.184;5.942;2023-09-12T12:42:39;6;;;4;;
15504;SDS011;7854;52.184;5.942;2023-09-12T12:44:54;7;;;6;;
15504;SDS011;7854;52.184;5.942;2023-09-12T12:47:08;6;;;6;;
15504;SDS011;7854;52.184;5.942;2023-09-12T12:49:22;7;;;6;;
15504;SDS011;7854;52.184;5.942;2023-09-12T12:51:37;7;;;7;;
15504;SDS011;7854;52.184;5.942;2023-09-12T12:53:53;6;;;6;;
15504;SDS011;7854;52.184;5.942;2023-09-12T12:56:06;7;;;6;;
15504;SDS011;7854;52.184;5.942;2023-09-12T12:58:20;6;;;5;;
15504;SDS011;7854;52.184;5.942;2023-09-12T13:00:34;5;;;4;;
15504;SDS011;7854;52.184;5.942;2023-09-12T13:02:49;5;;;5;;
15504;SDS011;7854;52.184;5.942;2023-09-12T13:05:04;4;;;4;;
15504;SDS011;7854;52.184;5.942;2023-09-12T13:07:17;5;;;4;;
15504;SDS011;7854;52.184;5.942;2023-09-12T13:09:32;5;;;4;;
15504;SDS011;7854;52.184;5.942;2023-09-12T13:11:46;5;;;4;;
15504;SDS011;7854;52.184;5.942;2023-09-12T13:14:00;5;;;4;;
15504;SDS011;7854;52.184;5.942;2023-09-12T13:16:15;4;;;4;;
15504;SDS011;7854;52.184;5.942;2023-09-12T13:18:29;4;;;4;;
15504;SDS011;7854;52.184;5.942;2023-09-12T13:20:43;3;;;3;;
15504;SDS011;7854;52.184;5.942;2023-09-12T13:22:58;4;;;4;;
15504;SDS011;7854;52.184;5.942;2023-09-12T13:27:26;8;;;4;;
15504;SDS011;7854;52.184;5.942;2023-09-12T13:29:41;4;;;4;;
15504;SDS011;7854;52.184;5.942;2023-09-12T13:31:54;4;;;4;;
15504;SDS011;7854;52.184;5.942;2023-09-12T13:34:08;12;;;4;;
15504;SDS011;7854;52.184;5.942;2023-09-12T13:36:22;5;;;5;;
15504;SDS011;7854;52.184;5.942;2023-09-12T13:38:35;3;;;3;;
15504;SDS011;7854;52.184;5.942;2023-09-12T13:40:50;4;;;3;;
15504;SDS011;7854;52.184;5.942;2023-09-12T13:45:18;3;;;3;;
15504;SDS011;7854;52.184;5.942;2023-09-12T13:47:33;3;;;3;;
15504;SDS011;7854;52.184;5.942;2023-09-12T13:49:48;4;;;3;;
15504;SDS011;7854;52.184;5.942;2023-09-12T13:52:02;4;;;4;;
15504;SDS011;7854;52.184;5.942;2023-09-12T13:54:16;3;;;3;;
15504;SDS011;7854;52.184;5.942;2023-09-12T13:56:31;3;;;3;;
15504;SDS011;7854;52.184;5.942;2023-09-12T13:58:45;3;;;3;;
15504;SDS011;7854;52.184;5.942;2023-09-12T14:01:00;3;;;3;;
15504;SDS011;7854;52.184;5.942;2023-09-12T14:03:14;3;;;2;;
15504;SDS011;7854;52.184;5.942;2023-09-12T14:05:29;4;;;4;;
15504;SDS011;7854;52.184;5.942;2023-09-12T14:07:43;3;;;3;;
15504;SDS011;7854;52.184;5.942;2023-09-12T14:09:57;11;;;3;;
15504;SDS011;7854;52.184;5.942;2023-09-12T14:12:12;4;;;3;;
15504;SDS011;7854;52.184;5.942;2023-09-12T14:14:26;4;;;4;;
15504;SDS011;7854;52.184;5.942;2023-09-12T14:16:41;4;;;4;;
15504;SDS011;7854;52.184;5.942;2023-09-12T14:18:55;5;;;4;;
15504;SDS011;7854;52.184;5.942;2023-09-12T14:21:10;4;;;4;;
15504;SDS011;7854;52.184;5.942;2023-09-12T14:23:24;5;;;4;;
15504;SDS011;7854;52.184;5.942;2023-09-12T14:25:38;4;;;4;;
15504;SDS011;7854;52.184;5.942;2023-09-12T14:27:52;4;;;3;;
15504;SDS011;7854;52.184;5.942;2023-09-12T14:30:07;3;;;3;;
15504;SDS011;7854;52.184;5.942;2023-09-12T14:32:21;4;;;3;;
15504;SDS011;7854;52.184;5.942;2023-09-12T14:34:35;5;;;4;;
15504;SDS011;7854;52.184;5.942;2023-09-12T14:36:50;4;;;3;;
15504;SDS011;7854;52.184;5.942;2023-09-12T14:41:19;4;;;3;;
15504;SDS011;7854;52.184;5.942;2023-09-12T14:43:33;4;;;3;;
15504;SDS011;7854;52.184;5.942;2023-09-12T14:45:48;4;;;3;;
15504;SDS011;7854;52.184;5.942;2023-09-12T14:48:02;3;;;3;;
15504;SDS011;7854;52.184;5.942;2023-09-12T14:50:17;4;;;4;;
15504;SDS011;7854;52.184;5.942;2023-09-12T14:52:31;5;;;4;;
15504;SDS011;7854;52.184;5.942;2023-09-12T14:54:46;4;;;4;;
15504;SDS011;7854;52.184;5.942;2023-09-12T14:57:00;5;;;4;;
15504;SDS011;7854;52.184;5.942;2023-09-12T14:59:14;4;;;4;;
15504;SDS011;7854;52.184;5.942;2023-09-12T15:01:29;4;;;3;;
15504;SDS011;7854;52.184;5.942;2023-09-12T15:03:43;3;;;2;;
15504;SDS011;7854;52.184;5.942;2023-09-12T15:05:57;3;;;2;;
15504;SDS011;7854;52.184;5.942;2023-09-12T15:08:12;4;;;3;;